Time;durP1;ratioP1;P1;durP2;ratioP2;P2;SDS_P1;SDS_P2;PMS_P1;PMS_P2;Temp;Humidity;BMP_temperature;BMP_pressure;BME280_temperature;BME280_humidity;BME280_pressure;Samples;Min_cycle;Max_cycle;Signal;HPM_P1;HPM_P2
2024/01/12 00:02:08;;;;;;;8.27;6.47;;;20.60;54.40;;;;;;5078714;28;20560;-70
2024/01/12 00:04:34;;;;;;;6.90;5.90;;;20.60;54.40;;;;;;5096777;28;20195;-68
2024/01/12 00:07:00;;;;;;;6.50;5.83;;;20.60;54.40;;;;;;5097054;28;20415;-69
2024/01/12 00:09:25;;;;;;;6.30;5.70;;;20.60;54.40;;;;;;5096817;28;20194;-70
2024/01/12 00:11:51;;;;;;;7.33;6.30;;;20.60;54.50;;;;;;5096497;28;20679;-70
2024/01/12 00:14:16;;;;;;;8.03;6.37;;;20.60;54.40;;;;;;5096869;28;20178;-71
2024/01/12 00:16:47;;;;;;;8.50;6.20;;;20.60;54.50;;;;;;5096674;28;20173;-70
2024/01/12 00:19:13;;;;;;;7.07;6.03;;;20.60;54.50;;;;;;5096569;28;20209;-70
2024/01/12 00:21:42;;;;;;;6.77;5.80;;;20.60;54.50;;;;;;5096963;28;20506;-70
2024/01/12 00:24:07;;;;;;;8.23;6.77;;;20.60;54.50;;;;;;5096400;28;20374;-71
2024/01/12 00:26:33;;;;;;;7.53;6.63;;;20.60;54.50;;;;;;5096519;28;20894;-70
2024/01/12 00:28:58;;;;;;;7.00;5.87;;;20.60;54.50;;;;;;5096030;28;20238;-70
2024/01/12 00:31:24;;;;;;;6.40;5.40;;;20.60;55.00;;;;;;5096227;28;20174;-68
2024/01/12 00:33:49;;;;;;;9.20;6.33;;;20.60;54.50;;;;;;5095744;28;20557;-69
2024/01/12 00:36:15;;;;;;;9.60;6.13;;;20.60;54.50;;;;;;5096450;28;20177;-71
2024/01/12 00:38:41;;;;;;;6.37;5.20;;;20.60;54.50;;;;;;5096489;28;20193;-70
2024/01/12 00:41:06;;;;;;;6.90;6.20;;;20.50;54.40;;;;;;5096366;28;20263;-70
2024/01/12 00:43:33;;;;;;;6.63;5.90;;;20.50;54.40;;;;;;5096309;28;20793;-70
2024/01/12 00:45:59;;;;;;;6.73;6.10;;;20.50;54.40;;;;;;5095687;28;20166;-71
2024/01/12 00:48:24;;;;;;;7.73;6.13;;;20.50;54.40;;;;;;5095645;28;20428;-70
2024/01/12 00:50:50;;;;;;;6.30;5.70;;;20.50;54.50;;;;;;5095981;28;20587;-69
2024/01/12 00:53:15;;;;;;;6.80;5.13;;;20.50;54.50;;;;;;5095881;28;20664;-70
2024/01/12 00:55:41;;;;;;;6.27;5.63;;;20.50;54.40;;;;;;5095699;28;20178;-70
2024/01/12 00:58:07;;;;;;;7.30;5.93;;;20.50;54.40;;;;;;5095916;28;20205;-71
2024/01/12 01:00:32;;;;;;;7.23;5.57;;;20.50;54.40;;;;;;5095690;28;20209;-70
2024/01/12 01:03:02;;;;;;;7.07;6.03;;;20.50;54.50;;;;;;5095351;28;20165;-71
2024/01/12 01:05:28;;;;;;;6.53;5.40;;;20.50;54.50;;;;;;5095029;28;20216;-70
2024/01/12 01:07:53;;;;;;;6.20;5.60;;;20.50;54.50;;;;;;5095705;28;20443;-69
2024/01/12 01:10:19;;;;;;;7.30;6.40;;;20.50;54.50;;;;;;5095617;28;20418;-70
2024/01/12 01:12:44;;;;;;;7.03;6.10;;;20.50;54.50;;;;;;5095235;28;20182;-70
2024/01/12 01:15:13;;;;;;;6.30;5.70;;;20.50;54.50;;;;;;5095163;28;20173;-70
2024/01/12 01:17:39;;;;;;;7.90;5.87;;;20.50;54.50;;;;;;5095394;28;20715;-70
2024/01/12 01:20:05;;;;;;;6.47;5.50;;;20.50;54.50;;;;;;5095265;28;20447;-71
2024/01/12 01:22:33;;;;;;;6.73;5.70;;;20.50;54.50;;;;;;5076719;28;20169;-70
2024/01/12 01:24:59;;;;;;;9.33;5.53;;;20.40;54.40;;;;;;5094921;28;20941;-70
2024/01/12 01:27:25;;;;;;;6.47;5.80;;;20.50;54.50;;;;;;5094951;28;20408;-71
2024/01/12 01:29:51;;;;;;;6.13;5.53;;;20.40;54.40;;;;;;5095129;28;20438;-70
2024/01/12 01:32:17;;;;;;;7.83;5.37;;;20.50;54.50;;;;;;5094617;28;20192;-70
2024/01/12 01:34:42;;;;;;;7.00;4.90;;;20.40;54.40;;;;;;5094814;28;20205;-70
2024/01/12 01:37:08;;;;;;;6.50;5.53;;;20.40;54.40;;;;;;5094816;28;20211;-70
2024/01/12 01:39:33;;;;;;;8.43;5.80;;;20.40;54.40;;;;;;5094203;28;20200;-70
2024/01/12 01:42:01;;;;;;;8.50;5.43;;;20.40;54.40;;;;;;5094853;28;20249;-71
2024/01/12 01:44:27;;;;;;;6.83;6.13;;;20.40;54.40;;;;;;5094857;28;20173;-70
2024/01/12 01:46:54;;;;;;;7.17;5.90;;;20.40;54.40;;;;;;5094909;28;20399;-70
2024/01/12 01:49:21;;;;;;;7.40;6.03;;;20.40;54.50;;;;;;5095017;28;20243;-70
2024/01/12 01:51:47;;;;;;;6.50;5.60;;;20.40;54.50;;;;;;5094804;28;20435;-70
2024/01/12 01:54:13;;;;;;;6.17;5.37;;;20.40;54.50;;;;;;5094797;28;20863;-70
2024/01/12 01:56:40;;;;;;;7.07;5.07;;;20.40;54.50;;;;;;5094494;28;20756;-70
2024/01/12 01:59:06;;;;;;;6.33;5.40;;;20.40;54.40;;;;;;5094157;28;20446;-70
2024/01/12 02:01:32;;;;;;;5.30;4.80;;;20.40;54.50;;;;;;5094128;28;20451;-70
2024/01/12 02:04:01;;;;;;;6.57;5.80;;;20.40;54.50;;;;;;5094353;28;20443;-70
2024/01/12 02:06:26;;;;;;;6.93;6.00;;;20.30;54.40;;;;;;5094100;28;20404;-71
2024/01/12 02:08:52;;;;;;;7.60;5.03;;;20.40;54.50;;;;;;5076061;28;20435;-71
2024/01/12 02:11:18;;;;;;;6.50;5.40;;;20.30;54.40;;;;;;5094199;28;20173;-70
2024/01/12 02:13:44;;;;;;;6.07;5.00;;;20.30;54.40;;;;;;5093474;28;20414;-70
2024/01/12 02:16:10;;;;;;;6.53;5.40;;;20.30;54.40;;;;;;5094328;28;20166;-70
2024/01/12 02:18:36;;;;;;;9.10;5.30;;;20.40;54.50;;;;;;5094247;28;20451;-69
2024/01/12 02:21:01;;;;;;;7.30;5.50;;;20.40;54.50;;;;;;5094052;28;21030;-71
2024/01/12 02:23:27;;;;;;;8.20;5.70;;;20.40;54.50;;;;;;5093901;28;20178;-70
2024/01/12 02:25:53;;;;;;;6.80;5.57;;;20.30;54.40;;;;;;5093914;28;20173;-70
2024/01/12 02:28:18;;;;;;;6.33;5.00;;;20.40;54.50;;;;;;5093990;28;20205;-69
2024/01/12 02:30:44;;;;;;;6.47;5.60;;;20.40;54.50;;;;;;5094113;28;20166;-71
2024/01/12 02:33:10;;;;;;;5.67;5.17;;;20.30;54.40;;;;;;5093973;28;20169;-71
2024/01/12 02:35:35;;;;;;;5.30;4.60;;;20.40;54.50;;;;;;5093958;28;20177;-70
2024/01/12 02:38:01;;;;;;;6.97;5.73;;;20.40;54.80;;;;;;5094036;28;20173;-70
2024/01/12 02:40:26;;;;;;;5.40;4.90;;;20.30;54.40;;;;;;5094298;28;20277;-71
2024/01/12 02:42:52;;;;;;;6.60;5.20;;;20.30;54.40;;;;;;5094297;28;20178;-69
2024/01/12 02:45:19;;;;;;;6.93;5.90;;;20.30;54.40;;;;;;5093812;28;20173;-70
2024/01/12 02:47:44;;;;;;;6.33;4.87;;;20.30;54.40;;;;;;5093993;28;20542;-71
2024/01/12 02:50:10;;;;;;;7.10;6.10;;;20.40;54.50;;;;;;5093492;28;20447;-71
2024/01/12 02:52:36;;;;;;;6.17;5.30;;;20.30;54.40;;;;;;5093925;28;20181;-69
2024/01/12 02:55:05;;;;;;;6.20;5.13;;;20.30;54.40;;;;;;5093619;28;20593;-70
2024/01/12 02:57:31;;;;;;;6.07;5.43;;;20.30;54.40;;;;;;5093825;28;20178;-70
2024/01/12 02:59:57;;;;;;;5.33;4.80;;;20.30;54.40;;;;;;5093727;28;20499;-71
2024/01/12 03:02:26;;;;;;;5.27;4.77;;;20.30;54.40;;;;;;5093902;28;20913;-69
2024/01/12 03:04:52;;;;;;;7.17;4.97;;;20.30;54.40;;;;;;5093823;28;20169;-70
2024/01/12 03:07:17;;;;;;;6.53;4.93;;;20.30;54.40;;;;;;5093991;28;20407;-70
2024/01/12 03:09:43;;;;;;;6.17;5.37;;;20.30;54.40;;;;;;5093760;28;20225;-71
2024/01/12 03:12:09;;;;;;;6.53;4.90;;;20.30;54.40;;;;;;5093675;28;20218;-70
2024/01/12 03:14:34;;;;;;;6.43;5.00;;;20.30;54.40;;;;;;5075527;28;20222;-70
2024/01/12 03:17:00;;;;;;;5.47;4.60;;;20.30;54.40;;;;;;5093635;28;20196;-70
2024/01/12 03:19:26;;;;;;;5.77;5.20;;;20.30;54.40;;;;;;5093616;28;20197;-69
2024/01/12 03:21:51;;;;;;;6.30;5.20;;;20.30;54.50;;;;;;5075323;28;20178;-69
2024/01/12 03:24:17;;;;;;;5.70;4.90;;;20.30;54.40;;;;;;5094029;28;20222;-70
2024/01/12 03:26:42;;;;;;;6.20;5.20;;;20.30;54.40;;;;;;5097474;28;20198;-70
2024/01/12 03:29:08;;;;;;;5.07;4.50;;;20.30;54.40;;;;;;5097561;28;20197;-69
2024/01/12 03:31:34;;;;;;;6.47;4.70;;;20.20;54.40;;;;;;5097039;28;20196;-69
2024/01/12 03:33:59;;;;;;;6.17;4.87;;;20.30;54.50;;;;;;5097277;28;20170;-68
2024/01/12 03:36:26;;;;;;;5.70;5.20;;;20.30;54.40;;;;;;5097360;28;20165;-70
2024/01/12 03:38:55;;;;;;;5.10;4.30;;;20.20;54.40;;;;;;5078898;28;20197;-71
2024/01/12 03:41:21;;;;;;;5.27;4.30;;;20.30;54.40;;;;;;5097295;28;20613;-70
2024/01/12 03:43:47;;;;;;;5.40;4.30;;;20.30;54.40;;;;;;5097146;28;20457;-69
2024/01/12 03:46:12;;;;;;;6.70;4.90;;;20.20;54.30;;;;;;5097065;28;20415;-69
2024/01/12 03:48:40;;;;;;;6.87;5.00;;;20.20;54.40;;;;;;5097065;28;20196;-69
2024/01/12 03:51:06;;;;;;;5.17;4.67;;;20.20;54.40;;;;;;5097078;28;20205;-70
2024/01/12 03:53:31;;;;;;;5.03;4.53;;;20.20;54.40;;;;;;5097040;28;20423;-69
2024/01/12 03:55:57;;;;;;;7.70;4.67;;;20.20;54.40;;;;;;5097101;28;20186;-70
2024/01/12 03:58:23;;;;;;;5.20;4.20;;;20.20;54.30;;;;;;5096923;28;20217;-71
2024/01/12 04:00:48;;;;;;;5.27;4.70;;;20.20;54.40;;;;;;5097036;28;20240;-70
2024/01/12 04:03:14;;;;;;;5.97;4.53;;;20.20;54.40;;;;;;5096384;28;20174;-70
2024/01/12 04:05:39;;;;;;;4.70;4.20;;;20.20;54.40;;;;;;5078107;28;20180;-69
2024/01/12 04:08:05;;;;;;;5.13;4.40;;;20.20;54.40;;;;;;5096797;28;20181;-70
2024/01/12 04:10:31;;;;;;;6.50;5.00;;;20.20;54.40;;;;;;5096661;28;20174;-69
2024/01/12 04:12:57;;;;;;;5.67;5.17;;;20.20;54.40;;;;;;5096711;28;20438;-70
2024/01/12 04:15:22;;;;;;;5.03;4.47;;;20.20;54.40;;;;;;5096700;28;20633;-70
2024/01/12 04:17:48;;;;;;;5.00;4.00;;;20.20;54.40;;;;;;5096280;28;20254;-70
2024/01/12 04:20:14;;;;;;;5.30;4.80;;;20.20;54.40;;;;;;5096449;28;20634;-69
2024/01/12 04:22:39;;;;;;;7.00;4.27;;;20.20;54.40;;;;;;5095838;28;20234;-70
2024/01/12 04:25:06;;;;;;;4.77;4.27;;;20.20;54.40;;;;;;5096458;28;20590;-69
2024/01/12 04:27:31;;;;;;;5.20;4.70;;;20.20;54.40;;;;;;5096290;28;20562;-70
2024/01/12 04:29:57;;;;;;;7.83;5.10;;;20.20;54.40;;;;;;5095732;28;20534;-70
2024/01/12 04:32:22;;;;;;;4.40;4.00;;;20.20;54.40;;;;;;5096411;28;20208;-71
2024/01/12 04:34:48;;;;;;;5.10;4.60;;;20.20;54.40;;;;;;5095753;28;20185;-69
2024/01/12 04:37:13;;;;;;;4.90;3.93;;;20.20;54.40;;;;;;5094680;28;20166;-71
2024/01/12 04:39:40;;;;;;;4.77;4.27;;;20.20;54.40;;;;;;5095536;28;20282;-69
2024/01/12 04:42:06;;;;;;;5.23;4.40;;;20.20;54.40;;;;;;5096060;28;20174;-70
2024/01/12 04:44:31;;;;;;;6.10;4.73;;;20.20;54.40;;;;;;5095986;28;20415;-70
2024/01/12 04:46:57;;;;;;;4.87;4.37;;;20.20;54.40;;;;;;5095801;28;20205;-70
2024/01/12 04:49:23;;;;;;;6.03;4.23;;;20.20;54.40;;;;;;5077757;28;20656;-69
2024/01/12 04:51:48;;;;;;;6.53;4.70;;;20.20;54.40;;;;;;5095684;28;20169;-70
2024/01/12 04:54:14;;;;;;;5.13;4.63;;;20.10;54.30;;;;;;5095279;28;20173;-69
2024/01/12 04:56:39;;;;;;;6.37;4.47;;;20.20;54.40;;;;;;5095201;28;20181;-69
2024/01/12 04:59:05;;;;;;;4.60;4.20;;;20.20;54.40;;;;;;5095431;28;20252;-70
2024/01/12 05:01:30;;;;;;;4.80;4.17;;;20.20;54.40;;;;;;5095296;28;20211;-70
2024/01/12 05:03:56;;;;;;;5.20;4.70;;;20.10;54.30;;;;;;5077533;28;20230;-70
2024/01/12 05:06:22;;;;;;;4.47;4.07;;;20.20;54.40;;;;;;5095434;28;20177;-70
2024/01/12 05:08:47;;;;;;;4.10;3.70;;;20.20;54.40;;;;;;5094956;28;20193;-70
2024/01/12 05:11:13;;;;;;;5.07;4.50;;;20.20;54.40;;;;;;5095374;28;20177;-69
2024/01/12 05:13:38;;;;;;;4.23;3.83;;;20.20;54.40;;;;;;5095117;28;20181;-69
2024/01/12 05:16:04;;;;;;;4.90;4.50;;;20.20;54.40;;;;;;5094790;28;20645;-70
2024/01/12 05:18:29;;;;;;;5.30;4.80;;;20.20;54.40;;;;;;5094331;28;20205;-70
2024/01/12 05:20:55;;;;;;;3.83;3.43;;;20.20;54.40;;;;;;5094912;28;20284;-70
2024/01/12 05:23:21;;;;;;;7.37;4.27;;;20.20;54.40;;;;;;5095193;28;20169;-70
2024/01/12 05:25:46;;;;;;;4.40;3.80;;;20.20;54.40;;;;;;5094343;28;20219;-70
2024/01/12 05:28:12;;;;;;;4.40;4.00;;;20.20;54.40;;;;;;5094969;28;20192;-70
2024/01/12 05:30:37;;;;;;;6.40;4.00;;;20.20;54.40;;;;;;5094988;28;20192;-70
2024/01/12 05:33:03;;;;;;;4.27;3.87;;;20.20;54.40;;;;;;5076738;28;20586;-70
2024/01/12 05:35:29;;;;;;;4.40;4.00;;;20.20;54.40;;;;;;5094484;28;20540;-70
2024/01/12 05:37:55;;;;;;;4.97;4.10;;;20.20;54.40;;;;;;5094143;28;20178;-68
2024/01/12 05:40:21;;;;;;;5.00;4.00;;;20.20;54.40;;;;;;5076199;28;20205;-70
2024/01/12 05:42:46;;;;;;;4.10;3.70;;;20.20;54.30;;;;;;5093181;28;20494;-70
2024/01/12 05:45:12;;;;;;;4.57;3.97;;;20.20;54.30;;;;;;5094368;28;20415;-70
2024/01/12 05:47:38;;;;;;;4.40;4.00;;;20.20;54.30;;;;;;5094138;28;20212;-69
2024/01/12 05:50:06;;;;;;;4.67;3.80;;;20.20;54.30;;;;;;5094422;28;20789;-69
2024/01/12 05:52:33;;;;;;;5.50;4.30;;;20.20;54.30;;;;;;5093980;28;20412;-70
2024/01/12 05:54:59;;;;;;;4.63;3.83;;;20.20;54.90;;;;;;5094212;28;20487;-70
2024/01/12 05:57:25;;;;;;;6.33;3.87;;;20.20;54.30;;;;;;5093948;28;20447;-70
2024/01/12 05:59:51;;;;;;;4.53;3.90;;;20.20;54.30;;;;;;5094035;28;20213;-70
2024/01/12 06:02:17;;;;;;;4.10;3.60;;;20.20;54.30;;;;;;5094064;28;20552;-69
2024/01/12 06:04:42;;;;;;;5.60;4.13;;;20.20;54.30;;;;;;5093746;28;20404;-70
2024/01/12 06:07:08;;;;;;;4.97;4.47;;;20.20;54.30;;;;;;5094187;28;20181;-69
2024/01/12 06:09:33;;;;;;;4.90;4.13;;;20.20;54.30;;;;;;5093913;28;20225;-70
2024/01/12 06:11:59;;;;;;;4.10;3.60;;;20.20;54.30;;;;;;5093734;28;20177;-70
2024/01/12 06:14:25;;;;;;;4.80;3.77;;;20.10;54.30;;;;;;5093002;28;20181;-70
2024/01/12 06:16:52;;;;;;;5.47;3.80;;;20.20;54.40;;;;;;5092738;28;20616;-69
2024/01/12 06:19:17;;;;;;;4.80;3.90;;;20.20;54.30;;;;;;5092839;28;20664;-69
2024/01/12 06:21:43;;;;;;;4.40;4.00;;;20.20;54.40;;;;;;5092847;28;20452;-69
2024/01/12 06:24:09;;;;;;;4.70;4.07;;;20.20;54.40;;;;;;5092734;28;20170;-69
2024/01/12 06:26:34;;;;;;;3.73;3.30;;;20.20;54.30;;;;;;5092607;28;20182;-69
2024/01/12 06:29:00;;;;;;;7.20;4.27;;;20.20;54.30;;;;;;5092843;28;20197;-69
2024/01/12 06:31:31;;;;;;;4.57;4.10;;;20.20;54.40;;;;;;5092380;28;20181;-70
2024/01/12 06:33:56;;;;;;;4.33;3.57;;;20.20;54.40;;;;;;5092374;28;20185;-69
2024/01/12 06:36:22;;;;;;;4.10;3.57;;;20.30;54.50;;;;;;5074599;28;20430;-69
2024/01/12 06:38:47;;;;;;;4.80;3.70;;;20.30;54.50;;;;;;5092998;28;20198;-70
2024/01/12 06:41:13;;;;;;;4.00;3.60;;;20.30;54.50;;;;;;5074350;28;20219;-69
2024/01/12 06:43:39;;;;;;;4.10;3.70;;;20.40;54.60;;;;;;5092448;28;20169;-67
2024/01/12 06:46:07;;;;;;;4.07;3.67;;;20.40;54.50;;;;;;5092661;28;20697;-69
2024/01/12 06:48:34;;;;;;;4.50;3.97;;;20.40;54.50;;;;;;5092541;28;20211;-70
2024/01/12 06:51:00;;;;;;;4.50;3.73;;;20.40;54.50;;;;;;5074351;28;20514;-69
2024/01/12 06:53:25;;;;;;;4.20;3.50;;;20.50;54.50;;;;;;5092159;28;20404;-69
2024/01/12 06:55:51;;;;;;;4.53;4.03;;;20.50;54.50;;;;;;5092937;28;20921;-69
2024/01/12 06:58:17;;;;;;;5.40;3.67;;;20.50;54.40;;;;;;5092516;28;20228;-69
2024/01/12 07:00:42;;;;;;;3.67;3.37;;;20.50;54.40;;;;;;5095415;28;20697;-69
2024/01/12 07:03:08;;;;;;;4.70;3.70;;;20.60;54.40;;;;;;5096311;28;20174;-69
2024/01/12 07:05:33;;;;;;;4.00;3.60;;;20.60;54.40;;;;;;5096693;28;20552;-69
2024/01/12 07:07:59;;;;;;;3.70;3.40;;;20.60;54.40;;;;;;5096353;28;20173;-69
2024/01/12 07:10:25;;;;;;;3.77;3.37;;;20.60;54.30;;;;;;5096784;28;20177;-69
2024/01/12 07:12:53;;;;;;;3.43;3.13;;;20.60;54.30;;;;;;5096503;28;20200;-69
2024/01/12 07:15:22;;;;;;;4.10;3.70;;;20.60;54.30;;;;;;5096277;28;20423;-69
2024/01/12 07:17:51;;;;;;;4.30;3.90;;;20.60;54.20;;;;;;5096261;28;20436;-69
2024/01/12 07:20:17;;;;;;;3.37;3.07;;;20.60;54.20;;;;;;5095764;28;20567;-69
2024/01/12 07:22:44;;;;;;;4.10;3.60;;;20.70;54.30;;;;;;5096147;28;20918;-69
2024/01/12 07:25:10;;;;;;;4.77;3.97;;;20.70;54.30;;;;;;5095756;28;20414;-69
2024/01/12 07:27:36;;;;;;;5.17;4.00;;;20.70;54.30;;;;;;5096480;28;20498;-68
2024/01/12 07:30:02;;;;;;;8.00;3.77;;;20.70;54.30;;;;;;5096110;28;20202;-69
2024/01/12 07:32:27;;;;;;;5.13;3.90;;;20.70;54.30;;;;;;5096226;28;20181;-68
2024/01/12 07:34:53;;;;;;;3.40;3.10;;;20.70;54.30;;;;;;5095743;28;20768;-69
2024/01/12 07:37:19;;;;;;;4.23;3.70;;;20.70;54.30;;;;;;5095780;28;20227;-69
2024/01/12 07:39:45;;;;;;;3.83;3.43;;;20.70;54.30;;;;;;5095821;28;20198;-69
2024/01/12 07:42:11;;;;;;;3.90;2.90;;;20.70;54.30;;;;;;5095908;28;20902;-69
2024/01/12 07:44:37;;;;;;;4.07;3.60;;;20.70;54.30;;;;;;5095576;28;20174;-69
2024/01/12 07:47:03;;;;;;;4.07;3.30;;;20.70;54.20;;;;;;5095846;28;20193;-69
2024/01/12 07:49:28;;;;;;;5.80;3.63;;;20.70;54.20;;;;;;5095565;28;20463;-69
2024/01/12 07:51:54;;;;;;;5.80;3.83;;;20.70;54.20;;;;;;5095802;28;20170;-68
2024/01/12 07:54:19;;;;;;;7.73;3.83;;;20.70;54.20;;;;;;5095798;28;20173;-70
2024/01/12 07:56:45;;;;;;;4.97;3.40;;;20.70;54.20;;;;;;5095666;28;20746;-69
2024/01/12 07:59:11;;;;;;;6.70;3.23;;;20.70;54.20;;;;;;5095990;28;20219;-70
2024/01/12 08:01:40;;;;;;;3.73;3.23;;;20.70;54.20;;;;;;5095418;28;20209;-68
2024/01/12 08:04:06;;;;;;;4.10;3.20;;;20.70;54.20;;;;;;5095508;28;20467;-68
2024/01/12 08:06:32;;;;;;;4.83;3.80;;;20.70;54.20;;;;;;5095423;28;20420;-69
2024/01/12 08:08:57;;;;;;;5.10;3.90;;;20.70;54.30;;;;;;5095471;28;20439;-69
2024/01/12 08:11:23;;;;;;;3.43;3.13;;;20.70;54.30;;;;;;5095534;28;20185;-69
2024/01/12 08:13:49;;;;;;;4.53;2.80;;;20.70;54.30;;;;;;5095430;28;20644;-69
2024/01/12 08:16:14;;;;;;;4.30;3.73;;;20.70;54.30;;;;;;5095446;28;20206;-69
2024/01/12 08:18:40;;;;;;;4.37;3.63;;;20.70;54.30;;;;;;5095098;28;20212;-69
2024/01/12 08:21:05;;;;;;;3.80;3.30;;;20.70;54.30;;;;;;5094940;28;20711;-67
2024/01/12 08:23:31;;;;;;;4.10;3.03;;;20.70;54.30;;;;;;5095370;28;20165;-69
2024/01/12 08:25:57;;;;;;;5.10;3.70;;;20.70;54.30;;;;;;5095488;28;20204;-69
2024/01/12 08:28:22;;;;;;;3.80;3.10;;;20.70;54.30;;;;;;5095010;28;20239;-69
2024/01/12 08:30:48;;;;;;;5.50;3.27;;;20.70;54.30;;;;;;5095359;28;20360;-68
2024/01/12 08:33:13;;;;;;;5.20;3.67;;;20.70;54.30;;;;;;5094962;28;20546;-69
2024/01/12 08:35:39;;;;;;;4.00;3.60;;;20.70;54.20;;;;;;5094981;28;20185;-69
2024/01/12 08:38:05;;;;;;;2.80;2.53;;;20.70;54.30;;;;;;5094999;28;20166;-69
2024/01/12 08:40:30;;;;;;;7.43;2.80;;;20.70;54.20;;;;;;5095195;28;20201;-69
2024/01/12 08:42:57;;;;;;;3.07;2.77;;;20.70;54.30;;;;;;5095084;28;20182;-70
2024/01/12 08:45:22;;;;;;;3.90;3.37;;;20.70;54.20;;;;;;5094777;28;20162;-69
2024/01/12 08:47:48;;;;;;;4.53;3.83;;;20.70;54.20;;;;;;5094683;28;20472;-70
2024/01/12 08:50:14;;;;;;;5.93;4.87;;;20.70;54.20;;;;;;5094803;28;20242;-69
2024/01/12 08:52:39;;;;;;;4.27;3.87;;;20.70;54.20;;;;;;5094543;28;20177;-68
2024/01/12 08:55:08;;;;;;;3.63;3.17;;;20.70;54.20;;;;;;5094904;28;20178;-70
2024/01/12 08:57:35;;;;;;;3.63;3.33;;;20.70;54.20;;;;;;5094630;28;20196;-69
2024/01/12 09:00:03;;;;;;;3.50;2.77;;;20.70;54.20;;;;;;5075911;28;20459;-69
2024/01/12 09:02:29;;;;;;;4.97;3.40;;;20.70;54.20;;;;;;5093952;28;20457;-69
2024/01/12 09:04:54;;;;;;;3.20;2.67;;;20.70;54.20;;;;;;5094023;28;20400;-69
2024/01/12 09:07:20;;;;;;;3.13;2.83;;;20.70;54.20;;;;;;5093975;28;20169;-69
2024/01/12 09:09:45;;;;;;;3.40;2.87;;;20.70;54.20;;;;;;5094178;28;20190;-69
2024/01/12 09:12:11;;;;;;;3.70;3.03;;;20.70;54.30;;;;;;5093815;28;20192;-69
2024/01/12 09:14:37;;;;;;;3.00;2.70;;;20.70;54.30;;;;;;5094208;28;20170;-69
2024/01/12 09:17:02;;;;;;;3.73;2.90;;;20.70;54.80;;;;;;5093672;28;20230;-70
2024/01/12 09:19:28;;;;;;;4.03;3.17;;;20.60;54.20;;;;;;5093816;28;20583;-69
2024/01/12 09:21:53;;;;;;;3.13;2.83;;;20.70;54.30;;;;;;5093235;28;20166;-69
2024/01/12 09:24:19;;;;;;;4.03;2.93;;;20.60;54.20;;;;;;5075364;28;20539;-68
2024/01/12 09:26:45;;;;;;;2.90;2.60;;;20.60;54.20;;;;;;5093825;28;20247;-69
2024/01/12 09:29:10;;;;;;;3.80;3.30;;;20.60;54.20;;;;;;5093862;28;20181;-70
2024/01/12 09:31:36;;;;;;;3.40;2.70;;;20.60;54.20;;;;;;5093845;28;20174;-69
2024/01/12 09:34:01;;;;;;;3.20;2.90;;;20.60;54.20;;;;;;5093877;28;20170;-69
2024/01/12 09:36:27;;;;;;;3.67;3.10;;;20.60;54.20;;;;;;5093679;28;20246;-68
2024/01/12 09:38:54;;;;;;;3.30;3.00;;;20.60;54.20;;;;;;5093139;28;20225;-69
2024/01/12 09:41:31;;;;;;;2.80;2.50;;;20.60;54.20;;;;;;5094105;28;20741;-69
2024/01/12 09:43:59;;;;;;;4.00;3.23;;;20.60;54.20;;;;;;5093502;28;20411;-69
2024/01/12 09:46:28;;;;;;;3.00;2.60;;;20.60;54.30;;;;;;5093710;28;20456;-69
2024/01/12 09:48:54;;;;;;;4.17;3.10;;;20.60;54.30;;;;;;5093371;28;20419;-69
2024/01/12 09:51:21;;;;;;;3.30;2.77;;;20.60;54.30;;;;;;5093736;28;20822;-69
2024/01/12 09:53:47;;;;;;;3.13;2.83;;;20.60;54.30;;;;;;5093747;28;20569;-68
2024/01/12 09:56:14;;;;;;;4.07;3.07;;;20.60;54.30;;;;;;5094215;28;21054;-68
2024/01/12 09:58:40;;;;;;;3.50;2.90;;;20.60;54.30;;;;;;5093461;28;21183;-69
2024/01/12 10:01:08;;;;;;;4.30;3.23;;;20.60;54.30;;;;;;5092865;28;20454;-69
2024/01/12 10:03:35;;;;;;;4.20;3.00;;;20.60;54.30;;;;;;5074877;28;20416;-70
2024/01/12 10:06:01;;;;;;;4.30;2.67;;;20.60;54.30;;;;;;5093648;28;20412;-69
2024/01/12 10:08:40;;;;;;;2.93;2.63;;;20.60;54.40;;;;;;5093360;28;20439;-69
2024/01/12 10:11:05;;;;;;;3.70;3.00;;;20.60;54.30;;;;;;5093542;28;20553;-69
2024/01/12 10:13:31;;;;;;;3.80;2.93;;;20.60;54.30;;;;;;5074903;28;20415;-69
2024/01/12 10:15:57;;;;;;;3.97;3.57;;;20.60;54.40;;;;;;5093421;28;20202;-69
2024/01/12 10:18:23;;;;;;;3.10;2.80;;;20.60;54.40;;;;;;5092881;28;20209;-69
2024/01/12 10:20:49;;;;;;;3.83;3.03;;;20.60;54.40;;;;;;5093147;28;20212;-69
2024/01/12 10:23:20;;;;;;;3.20;2.80;;;20.60;54.90;;;;;;5093176;28;20408;-69
2024/01/12 10:25:57;;;;;;;3.27;2.60;;;20.60;54.30;;;;;;5092981;28;20174;-68
2024/01/12 10:28:22;;;;;;;3.00;2.70;;;20.60;54.30;;;;;;5092641;28;20477;-69
2024/01/12 10:30:48;;;;;;;2.83;2.60;;;20.60;54.40;;;;;;5092876;28;20442;-69
2024/01/12 10:33:17;;;;;;;2.70;2.50;;;20.60;54.40;;;;;;5092880;28;20169;-68
2024/01/12 10:35:47;;;;;;;3.50;2.90;;;20.60;54.40;;;;;;5092504;28;20557;-70
2024/01/12 10:38:14;;;;;;;3.73;3.00;;;20.60;54.40;;;;;;5093490;28;20970;-69
2024/01/12 10:40:42;;;;;;;3.03;2.77;;;20.60;54.40;;;;;;5092800;28;20455;-69
2024/01/12 10:43:14;;;;;;;3.40;2.47;;;20.60;54.40;;;;;;5093322;28;20415;-70
2024/01/12 10:45:45;;;;;;;3.00;2.47;;;20.60;54.40;;;;;;5093204;28;20431;-70
2024/01/12 10:48:16;;;;;;;3.47;2.73;;;20.60;54.40;;;;;;5074874;28;20450;-71
2024/01/12 10:50:43;;;;;;;3.17;2.37;;;20.60;54.40;;;;;;5092952;28;20495;-71
2024/01/12 10:53:35;;;;;;;3.50;3.00;;;20.60;54.50;;;;;;5093128;28;20767;-71
2024/01/12 10:56:02;;;;;;;2.97;2.20;;;20.60;54.40;;;;;;5093341;28;20407;-71
2024/01/12 10:58:29;;;;;;;4.47;2.70;;;20.60;54.40;;;;;;5092914;28;20480;-71
2024/01/12 11:00:55;;;;;;;2.67;2.43;;;20.60;54.40;;;;;;5092553;28;20517;-71
2024/01/12 11:03:22;;;;;;;4.93;2.97;;;20.60;54.40;;;;;;5092894;28;20435;-70
2024/01/12 11:05:48;;;;;;;3.40;2.97;;;20.60;54.40;;;;;;5092672;28;20826;-70
2024/01/12 11:08:14;;;;;;;4.40;3.03;;;20.60;54.30;;;;;;5074577;28;20443;-70
2024/01/12 11:10:46;;;;;;;2.80;2.60;;;20.60;54.40;;;;;;5092405;28;20423;-70
2024/01/12 11:13:13;;;;;;;3.53;3.23;;;20.60;54.40;;;;;;5092904;28;20400;-70
2024/01/12 11:15:43;;;;;;;4.40;3.20;;;20.50;54.30;;;;;;5092461;28;20411;-71
2024/01/12 11:18:09;;;;;;;3.33;2.80;;;20.60;54.40;;;;;;5092300;28;20485;-70
2024/01/12 11:20:34;;;;;;;3.73;2.80;;;20.50;54.40;;;;;;5092362;28;20459;-71
2024/01/12 11:23:00;;;;;;;3.20;2.40;;;20.50;54.40;;;;;;5091697;28;20412;-70
2024/01/12 11:25:26;;;;;;;3.43;2.40;;;20.50;54.40;;;;;;5091635;28;20577;-69
2024/01/12 11:27:52;;;;;;;2.43;2.23;;;20.50;54.40;;;;;;5091746;28;20173;-69
2024/01/12 11:30:19;;;;;;;3.03;2.73;;;20.50;54.40;;;;;;5091935;28;20207;-70
2024/01/12 11:32:46;;;;;;;3.07;2.43;;;20.50;54.40;;;;;;5091707;28;20407;-70
2024/01/12 11:35:19;;;;;;;4.27;2.50;;;20.50;54.40;;;;;;5091386;28;20811;-70
2024/01/12 11:37:47;;;;;;;2.60;2.40;;;20.60;54.60;;;;;;5090986;28;20786;-71
2024/01/12 11:40:14;;;;;;;2.60;2.30;;;20.50;54.50;;;;;;5090449;28;20470;-70
2024/01/12 11:42:42;;;;;;;3.17;2.87;;;20.60;54.60;;;;;;5090470;28;20415;-70
2024/01/12 11:45:09;;;;;;;3.20;2.70;;;20.60;54.50;;;;;;5090713;28;20404;-71
2024/01/12 11:47:42;;;;;;;4.20;2.40;;;20.60;54.50;;;;;;5094314;28;20457;-71
2024/01/12 11:50:09;;;;;;;2.37;2.10;;;20.60;54.40;;;;;;5094200;28;20455;-71
2024/01/12 11:52:38;;;;;;;3.40;2.20;;;20.60;54.40;;;;;;5094288;28;20407;-71
2024/01/12 11:55:07;;;;;;;3.50;2.43;;;20.60;54.40;;;;;;5094228;28;20418;-71
2024/01/12 11:57:34;;;;;;;2.97;2.60;;;20.60;54.40;;;;;;5094152;28;20567;-70
2024/01/12 11:59:59;;;;;;;5.23;2.57;;;20.60;54.30;;;;;;5093857;28;20491;-71
2024/01/12 12:02:25;;;;;;;3.10;2.47;;;20.60;54.40;;;;;;5094087;28;20500;-71
2024/01/12 12:04:54;;;;;;;2.70;2.50;;;20.60;54.40;;;;;;5093862;28;20173;-70
2024/01/12 12:07:29;;;;;;;2.97;2.50;;;20.60;54.40;;;;;;5093965;28;20173;-71
2024/01/12 12:09:54;;;;;;;4.40;2.70;;;20.60;54.40;;;;;;5093804;28;20975;-71
2024/01/12 12:12:21;;;;;;;3.53;2.73;;;20.60;54.40;;;;;;5093891;28;20525;-71
2024/01/12 12:15:05;;;;;;;3.70;2.73;;;20.60;54.40;;;;;;5093820;28;20273;-70
2024/01/12 12:17:40;;;;;;;3.57;2.70;;;20.60;54.40;;;;;;5075674;28;20957;-71
2024/01/12 12:20:12;;;;;;;2.57;2.37;;;20.60;54.40;;;;;;5093780;28;20485;-71
2024/01/12 12:22:45;;;;;;;3.20;2.70;;;20.60;54.40;;;;;;5093609;28;20452;-71
2024/01/12 12:25:13;;;;;;;4.63;2.60;;;20.60;54.40;;;;;;5094179;28;20521;-71
2024/01/12 12:27:40;;;;;;;7.93;2.77;;;20.60;54.50;;;;;;5093531;28;20408;-69
2024/01/12 12:30:10;;;;;;;3.80;2.70;;;20.60;54.40;;;;;;5093368;28;20453;-71
2024/01/12 12:32:43;;;;;;;3.30;2.50;;;20.60;54.40;;;;;;5093512;28;20449;-70
2024/01/12 12:35:12;;;;;;;3.70;3.10;;;20.60;54.40;;;;;;5093341;28;20419;-71
2024/01/12 12:37:37;;;;;;;7.20;3.93;;;20.60;54.40;;;;;;5093378;28;20458;-70
2024/01/12 12:40:04;;;;;;;10.53;5.23;;;20.60;54.40;;;;;;5093228;28;20938;-72
2024/01/12 12:42:31;;;;;;;7.07;4.20;;;20.60;54.40;;;;;;5093256;28;20522;-70
2024/01/12 12:44:56;;;;;;;12.90;6.70;;;20.60;54.40;;;;;;5093151;28;20419;-71